Time,TemperatureF,DewpointF,PressureIn,WindDirection,WindDirectionDegrees,WindSpeedMPH,WindSpeedGustMPH,Humidity,HourlyPrecipIn,Conditions,Clouds,dailyrainin,SoftwareType,DateUTC
2013-01-14 00:04:00,34.0,33.0,30.15,NNE,32,0.0,0.0,97,0.00,,,0.01,,2013-01-14 05:04:00,
2013-01-14 00:12:00,34.0,33.0,30.15,NNE,32,0.0,0.0,97,0.00,,,0.01,,2013-01-14 05:12:00,
2013-01-14 00:22:00,34.0,33.0,30.16,ENE,60,0.0,1.0,97,0.00,,,0.01,,2013-01-14 05:22:00,
2013-01-14 00:33:00,34.0,33.0,30.16,ENE,60,0.0,1.0,97,0.00,,,0.01,,2013-01-14 05:33:00,
2013-01-14 00:43:00,34.0,33.0,30.16,ENE,60,0.0,1.0,97,0.00,,,0.01,,2013-01-14 05:43:00,
2013-01-14 00:53:00,34.0,33.0,30.15,ENE,58,0.0,1.0,97,0.00,,,0.01,,2013-01-14 05:53:00,
2013-01-14 01:03:00,34.0,33.0,30.15,ENE,70,1.0,2.0,97,0.00,,,0.01,,2013-01-14 06:03:00,
2013-01-14 01:12:00,34.0,33.0,30.15,ENE,70,1.0,2.0,97,0.00,,,0.01,,2013-01-14 06:12:00,
2013-01-14 01:22:00,34.0,33.0,30.15,ENE,70,0.0,0.0,97,0.00,,,0.01,,2013-01-14 06:22:00,
2013-01-14 01:33:00,34.0,33.0,30.15,ENE,67,0.0,0.0,97,0.00,,,0.01,,2013-01-14 06:33:00,
2013-01-14 01:43:00,34.0,33.0,30.15,ENE,67,0.0,0.0,97,0.00,,,0.01,,2013-01-14 06:43:00,
2013-01-14 01:53:00,34.0,33.0,30.16,ENE,70,1.0,3.0,97,0.00,,,0.01,,2013-01-14 06:53:00,
2013-01-14 02:02:00,34.0,33.0,30.16,ENE,65,0.0,1.0,97,0.00,,,0.01,,2013-01-14 07:02:00,
2013-01-14 02:12:00,34.0,33.0,30.16,ENE,65,0.0,1.0,97,0.00,,,0.01,,2013-01-14 07:12:00,
2013-01-14 02:23:00,34.0,33.0,30.16,ENE,65,0.0,1.0,97,0.00,,,0.01,,2013-01-14 07:23:00,
2013-01-14 02:33:00,34.0,33.0,30.15,NE,41,0.0,2.0,97,0.00,,,0.01,,2013-01-14 07:33:00,
2013-01-14 02:43:00,34.0,33.0,30.15,NE,41,0.0,2.0,97,0.00,,,0.01,,2013-01-14 07:43:00,
2013-01-14 02:53:00,35.0,34.0,30.14,NE,53,0.0,2.0,97,0.00,,,0.01,,2013-01-14 07:53:00,
2013-01-14 03:02:00,35.0,34.0,30.14,East,91,0.0,1.0,97,0.00,,,0.01,,2013-01-14 08:02:00,
2013-01-14 03:12:00,35.0,34.0,30.14,East,91,0.0,1.0,97,0.00,,,0.01,,2013-01-14 08:12:00,
2013-01-14 03:22:00,34.0,33.0,30.13,East,91,0.0,0.0,97,0.00,,,0.01,,2013-01-14 08:22:00,
2013-01-14 03:33:00,34.0,33.0,30.12,East,91,0.0,0.0,97,0.00,,,0.01,,2013-01-14 08:33:00,
2013-01-14 03:42:00,34.0,33.0,30.12,East,91,0.0,0.0,97,0.00,,,0.01,,2013-01-14 08:42:00,
2013-01-14 03:53:00,34.0,33.0,30.11,NW,321,0.0,1.0,97,0.00,,,0.01,,2013-01-14 08:53:00,
2013-01-14 04:03:00,34.0,33.0,30.11,East,85,0.0,1.0,97,0.00,,,0.01,,2013-01-14 09:03:00,
2013-01-14 04:12:00,34.0,33.0,30.11,East,85,0.0,1.0,97,0.00,,,0.01,,2013-01-14 09:12:00,
2013-01-14 04:23:00,34.0,33.0,30.10,East,86,0.0,0.0,97,0.00,,,0.01,,2013-01-14 09:23:00,
2013-01-14 04:33:00,34.0,33.0,30.07,SW,217,1.0,2.0,97,0.00,,,0.01,,2013-01-14 09:33:00,
2013-01-14 04:43:00,34.0,33.0,30.07,SW,217,1.0,2.0,97,0.00,,,0.01,,2013-01-14 09:43:00,
2013-01-14 04:53:00,34.0,33.0,30.09,NNW,328,0.0,5.0,97,0.00,,,0.01,,2013-01-14 09:53:00,
2013-01-14 05:02:00,36.0,35.0,30.05,NW,307,3.0,4.0,97,0.00,,,0.01,,2013-01-14 10:02:00,
2013-01-14 05:12:00,36.0,35.0,30.05,NW,307,3.0,4.0,97,0.00,,,0.01,,2013-01-14 10:12:00,
2013-01-14 05:23:00,36.0,35.0,30.06,SE,131,1.0,3.0,97,0.00,,,0.01,,2013-01-14 10:23:00,
2013-01-14 05:32:00,35.0,34.0,30.06,ENE,70,1.0,2.0,97,0.00,,,0.01,,2013-01-14 10:32:00,
2013-01-14 05:42:00,35.0,34.0,30.06,ENE,70,1.0,2.0,97,0.00,,,0.01,,2013-01-14 10:42:00,
2013-01-14 05:53:00,35.0,34.0,30.07,ENE,58,0.0,1.0,97,0.00,,,0.01,,2013-01-14 10:53:00,
2013-01-14 06:02:00,35.0,34.0,30.08,East,84,0.0,2.0,97,0.00,,,0.01,,2013-01-14 11:02:00,
2013-01-14 06:12:00,35.0,34.0,30.08,East,84,0.0,2.0,97,0.00,,,0.01,,2013-01-14 11:12:00,
2013-01-14 06:22:00,35.0,34.0,30.08,ENE,75,2.0,3.0,97,0.00,,,0.01,,2013-01-14 11:22:00,
2013-01-14 06:33:00,36.0,35.0,30.08,East,83,0.0,2.0,97,0.01,,,0.02,,2013-01-14 11:33:00,
2013-01-14 06:43:00,36.0,35.0,30.08,East,83,0.0,2.0,97,0.01,,,0.02,,2013-01-14 11:43:00,
2013-01-14 06:53:00,36.0,35.0,30.07,West,272,0.0,2.0,97,0.01,,,0.02,,2013-01-14 11:53:00,
2013-01-14 07:03:00,35.0,34.0,30.07,NE,38,0.0,1.0,97,0.01,,,0.02,,2013-01-14 12:03:00,
2013-01-14 07:12:00,35.0,34.0,30.07,NE,38,0.0,1.0,97,0.01,,,0.02,,2013-01-14 12:12:00,
2013-01-14 07:23:00,35.0,34.0,30.07,NNE,23,0.0,2.0,97,0.01,,,0.02,,2013-01-14 12:23:00,
2013-01-14 07:33:00,35.0,34.0,30.07,NNE,25,0.0,2.0,97,0.00,,,0.02,,2013-01-14 12:33:00,
2013-01-14 07:43:00,35.0,34.0,30.07,NNE,25,0.0,2.0,97,0.00,,,0.02,,2013-01-14 12:43:00,
2013-01-14 07:53:00,35.0,34.0,30.07,East,96,0.0,1.0,97,0.00,,,0.02,,2013-01-14 12:53:00,
2013-01-14 08:03:00,35.0,34.0,30.07,East,82,0.0,1.0,97,0.00,,,0.02,,2013-01-14 13:03:00,
2013-01-14 08:13:00,35.0,34.0,30.07,East,82,0.0,1.0,97,0.00,,,0.02,,2013-01-14 13:13:00,
2013-01-14 08:23:00,35.0,34.0,30.08,ESE,120,1.0,3.0,97,0.00,,,0.02,,2013-01-14 13:23:00,
2013-01-14 08:33:00,35.0,34.0,30.08,ENE,63,0.0,2.0,97,0.00,,,0.02,,2013-01-14 13:33:00,
2013-01-14 08:43:00,35.0,34.0,30.08,ENE,63,0.0,2.0,97,0.00,,,0.02,,2013-01-14 13:43:00,
2013-01-14 08:53:00,35.0,34.0,30.08,NE,44,0.0,3.0,97,0.00,,,0.02,,2013-01-14 13:53:00,
2013-01-14 09:03:00,36.0,35.0,30.08,ENE,68,0.0,3.0,97,0.00,,,0.02,,2013-01-14 14:03:00,
2013-01-14 09:13:00,36.0,35.0,30.08,ENE,68,0.0,3.0,97,0.00,,,0.02,,2013-01-14 14:13:00,
2013-01-14 09:23:00,37.0,36.0,30.09,SSE,155,0.0,3.0,97,0.00,,,0.02,,2013-01-14 14:23:00,
2013-01-14 09:33:00,38.0,37.0,30.10,West,280,2.0,7.0,97,0.00,,,0.02,,2013-01-14 14:33:00,
2013-01-14 09:43:00,38.0,37.0,30.10,West,280,2.0,7.0,97,0.00,,,0.02,,2013-01-14 14:43:00,
2013-01-14 09:53:00,40.0,39.0,30.11,East,95,1.0,4.0,97,0.00,,,0.02,,2013-01-14 14:53:00,
2013-01-14 10:03:00,42.0,41.0,30.10,WSW,256,0.0,5.0,97,0.00,,,0.02,,2013-01-14 15:03:00,
2013-01-14 10:12:00,42.0,41.0,30.10,WSW,256,0.0,5.0,97,0.00,,,0.02,,2013-01-14 15:12:00,
2013-01-14 10:23:00,42.0,41.0,30.10,WSW,256,0.0,5.0,97,0.00,,,0.02,,2013-01-14 15:23:00,
2013-01-14 10:33:00,51.0,49.0,30.10,NNE,18,5.0,15.0,94,0.00,,,0.01,,2013-01-14 15:33:00,
2013-01-14 10:43:00,51.0,49.0,30.10,NNE,18,5.0,15.0,94,0.00,,,0.01,,2013-01-14 15:43:00,
2013-01-14 10:53:00,51.0,49.0,30.10,NNE,18,5.0,15.0,94,0.00,,,0.01,,2013-01-14 15:53:00,
2013-01-14 11:03:00,57.0,46.0,30.10,WNW,290,7.0,25.0,66,0.00,,,0.01,,2013-01-14 16:03:00,
2013-01-14 11:12:00,57.0,46.0,30.10,WNW,290,7.0,25.0,66,0.00,,,0.01,,2013-01-14 16:12:00,
2013-01-14 11:23:00,57.0,45.0,30.10,NW,325,10.0,18.0,63,0.00,,,0.01,,2013-01-14 16:23:00,
2013-01-14 11:33:00,57.0,45.0,30.09,East,79,2.0,16.0,65,0.00,,,0.01,,2013-01-14 16:33:00,
2013-01-14 11:43:00,57.0,45.0,30.09,East,79,2.0,16.0,65,0.00,,,0.01,,2013-01-14 16:43:00,
2013-01-14 11:53:00,57.0,44.0,30.09,WNW,297,4.0,16.0,61,0.00,,,0.01,,2013-01-14 16:53:00,
2013-01-14 12:03:00,56.0,43.0,30.10,NW,315,3.0,15.0,61,0.00,,,0.01,,2013-01-14 17:03:00,
2013-01-14 12:12:00,56.0,43.0,30.10,NW,315,3.0,15.0,61,0.00,,,0.01,,2013-01-14 17:12:00,
2013-01-14 12:23:00,56.0,42.0,30.11,NW,325,4.0,17.0,59,0.00,,,0.01,,2013-01-14 17:23:00,
2013-01-14 12:33:00,55.0,41.0,30.12,WNW,287,6.0,25.0,60,0.00,,,0.01,,2013-01-14 17:33:00,
2013-01-14 12:43:00,55.0,41.0,30.12,WNW,287,6.0,25.0,60,0.00,,,0.01,,2013-01-14 17:43:00,
2013-01-14 12:53:00,54.0,41.0,30.13,WNW,300,10.0,22.0,61,0.00,,,0.01,,2013-01-14 17:53:00,
2013-01-14 13:03:00,53.0,40.0,30.14,WNW,289,7.0,16.0,61,0.00,,,0.01,,2013-01-14 18:03:00,
2013-01-14 13:13:00,53.0,40.0,30.14,WNW,289,7.0,16.0,61,0.00,,,0.01,,2013-01-14 18:13:00,
2013-01-14 13:23:00,52.0,39.0,30.14,SW,235,5.0,12.0,60,0.00,,,0.01,,2013-01-14 18:23:00,
2013-01-14 13:33:00,52.0,37.0,30.15,WNW,288,9.0,21.0,57,0.00,,,0.01,,2013-01-14 18:33:00,
2013-01-14 13:43:00,52.0,37.0,30.15,WNW,288,9.0,21.0,57,0.00,,,0.01,,2013-01-14 18:43:00,
2013-01-14 13:52:00,51.0,37.0,30.17,ENE,60,2.0,16.0,58,0.00,,,0.01,,2013-01-14 18:52:00,
2013-01-14 14:03:00,49.0,35.0,30.19,NW,311,6.0,22.0,58,0.00,,,0.01,,2013-01-14 19:03:00,
2013-01-14 14:13:00,49.0,35.0,30.19,NW,311,6.0,22.0,58,0.00,,,0.01,,2013-01-14 19:13:00,
2013-01-14 14:22:00,50.0,36.0,30.19,SSE,154,3.0,8.0,58,0.00,,,0.01,,2013-01-14 19:22:00,
2013-01-14 14:33:00,49.0,32.0,30.20,NNE,20,6.0,14.0,52,0.00,,,0.01,,2013-01-14 19:33:00,
2013-01-14 14:43:00,49.0,32.0,30.20,NNE,20,6.0,14.0,52,0.00,,,0.01,,2013-01-14 19:43:00,
2013-01-14 14:52:00,49.0,30.0,30.22,WNW,301,8.0,17.0,47,0.00,,,0.01,,2013-01-14 19:52:00,
2013-01-14 15:04:00,49.0,30.0,30.22,WNW,301,4.0,12.0,47,0.00,,,0.01,,2013-01-14 20:04:00,
2013-01-14 15:13:00,49.0,30.0,30.22,WNW,301,4.0,12.0,47,0.00,,,0.01,,2013-01-14 20:13:00,
2013-01-14 15:23:00,49.0,27.0,30.23,NE,39,7.0,19.0,42,0.00,,,0.01,,2013-01-14 20:23:00,
2013-01-14 15:33:00,49.0,27.0,30.25,WNW,294,4.0,13.0,42,0.00,,,0.01,,2013-01-14 20:33:00,
2013-01-14 15:43:00,49.0,27.0,30.25,WNW,294,4.0,13.0,42,0.00,,,0.01,,2013-01-14 20:43:00,
2013-01-14 15:53:00,48.0,25.0,30.26,WSW,240,11.0,27.0,41,0.00,,,0.01,,2013-01-14 20:53:00,
2013-01-14 16:03:00,47.0,26.0,30.27,West,270,2.0,9.0,44,0.00,,,0.01,,2013-01-14 21:03:00,
2013-01-14 16:13:00,47.0,26.0,30.27,West,270,2.0,9.0,44,0.00,,,0.01,,2013-01-14 21:13:00,
2013-01-14 16:23:00,46.0,26.0,30.28,SW,228,4.0,10.0,46,0.00,,,0.01,,2013-01-14 21:23:00,
2013-01-14 16:33:00,46.0,26.0,30.28,SW,228,4.0,10.0,46,0.00,,,0.01,,2013-01-14 21:33:00,
2013-01-14 16:43:00,46.0,26.0,30.28,SW,228,4.0,10.0,46,0.00,,,0.01,,2013-01-14 21:43:00,
2013-01-14 16:53:00,43.0,24.0,30.29,WSW,256,7.0,11.0,46,0.00,,,0.01,,2013-01-14 21:53:00,
2013-01-14 17:03:00,43.0,23.0,30.30,West,277,2.0,20.0,44,0.00,,,0.01,,2013-01-14 22:03:00,
2013-01-14 17:12:00,43.0,23.0,30.30,West,277,2.0,20.0,44,0.00,,,0.01,,2013-01-14 22:12:00,
2013-01-14 17:23:00,42.0,25.0,30.30,North,354,9.0,15.0,51,0.00,,,0.01,,2013-01-14 22:23:00,
2013-01-14 17:33:00,41.0,25.0,30.31,WNW,302,5.0,9.0,52,0.00,,,0.01,,2013-01-14 22:33:00,
2013-01-14 17:43:00,41.0,25.0,30.31,WNW,302,5.0,9.0,52,0.00,,,0.01,,2013-01-14 22:43:00,
2013-01-14 17:52:00,40.0,25.0,30.31,NW,305,1.0,10.0,55,0.00,,,0.01,,2013-01-14 22:52:00,
2013-01-14 18:03:00,40.0,25.0,30.31,NW,305,1.0,10.0,55,0.00,,,0.01,,2013-01-14 23:03:00,
2013-01-14 18:12:00,40.0,25.0,30.31,NW,305,1.0,10.0,55,0.00,,,0.01,,2013-01-14 23:12:00,
2013-01-14 18:23:00,36.0,26.0,30.31,South,170,1.0,4.0,68,0.00,,,0.01,,2013-01-14 23:23:00,
2013-01-14 18:33:00,34.0,26.0,30.31,SSE,152,2.0,3.0,72,0.00,,,0.01,,2013-01-14 23:33:00,
2013-01-14 18:43:00,34.0,26.0,30.31,SSE,152,2.0,3.0,72,0.00,,,0.01,,2013-01-14 23:43:00,
2013-01-14 18:53:00,33.0,27.0,30.31,East,94,2.0,3.0,77,0.00,,,0.01,,2013-01-14 23:53:00,
2013-01-14 19:03:00,32.0,26.0,30.32,ESE,109,0.0,1.0,77,0.00,,,0.01,,2013-01-15 00:03:00,
2013-01-14 19:12:00,32.0,26.0,30.32,ESE,109,0.0,1.0,77,0.00,,,0.01,,2013-01-15 00:12:00,
2013-01-14 19:23:00,32.0,26.0,30.32,North,356,1.0,5.0,79,0.00,,,0.01,,2013-01-15 00:23:00,
2013-01-14 19:33:00,33.0,26.0,30.34,NW,314,0.0,5.0,74,0.00,,,0.01,,2013-01-15 00:33:00,
2013-01-14 19:43:00,33.0,26.0,30.34,NW,314,0.0,5.0,74,0.00,,,0.01,,2013-01-15 00:43:00,
2013-01-14 19:52:00,31.0,26.0,30.37,ESE,120,0.0,2.0,80,0.00,,,0.01,,2013-01-15 00:52:00,
2013-01-14 20:02:00,32.0,25.0,30.37,ENE,70,1.0,5.0,76,0.00,,,0.01,,2013-01-15 01:02:00,
2013-01-14 20:12:00,32.0,25.0,30.37,ENE,70,1.0,5.0,76,0.00,,,0.01,,2013-01-15 01:12:00,
2013-01-14 20:22:00,32.0,25.0,30.37,ENE,70,1.0,5.0,76,0.00,,,0.01,,2013-01-15 01:22:00,
2013-01-14 20:32:00,32.0,25.0,30.37,ENE,70,1.0,5.0,76,0.00,,,0.01,,2013-01-15 01:32:00,
2013-01-14 20:53:00,30.0,25.0,30.40,NW,321,0.0,2.0,81,0.00,,,0.01,,2013-01-15 01:53:00,
2013-01-14 21:03:00,30.0,26.0,30.40,SE,127,0.0,1.0,84,0.00,,,0.01,,2013-01-15 02:03:00,
2013-01-14 21:12:00,30.0,26.0,30.40,SE,127,0.0,1.0,84,0.00,,,0.01,,2013-01-15 02:12:00,
2013-01-14 21:23:00,31.0,26.0,30.40,ESE,113,1.0,2.0,82,0.00,,,0.01,,2013-01-15 02:23:00,
2013-01-14 21:33:00,32.0,26.0,30.39,WNW,297,2.0,6.0,77,0.00,,,0.01,,2013-01-15 02:33:00,
2013-01-14 21:42:00,32.0,26.0,30.39,WNW,297,2.0,6.0,77,0.00,,,0.01,,2013-01-15 02:42:00,
2013-01-14 21:52:00,34.0,25.0,30.39,NE,36,1.0,5.0,70,0.00,,,0.01,,2013-01-15 02:52:00,
2013-01-14 22:03:00,34.0,25.0,30.37,WNW,285,3.0,9.0,69,0.00,,,0.01,,2013-01-15 03:03:00,
2013-01-14 22:12:00,34.0,25.0,30.37,WNW,285,3.0,9.0,69,0.00,,,0.01,,2013-01-15 03:12:00,
2013-01-14 22:22:00,34.0,25.0,30.37,ENE,58,0.0,6.0,69,0.00,,,0.01,,2013-01-15 03:22:00,
2013-01-14 22:33:00,33.0,26.0,30.38,ESE,111,0.0,2.0,74,0.00,,,0.01,,2013-01-15 03:33:00,
2013-01-14 22:42:00,33.0,26.0,30.38,ESE,111,0.0,2.0,74,0.00,,,0.01,,2013-01-15 03:42:00,
2013-01-14 22:52:00,32.0,25.0,30.38,North,8,0.0,2.0,75,0.00,,,0.01,,2013-01-15 03:52:00,
2013-01-14 23:03:00,33.0,24.0,30.37,NW,322,3.0,10.0,68,0.00,,,0.01,,2013-01-15 04:03:00,
2013-01-14 23:12:00,33.0,24.0,30.37,NW,322,3.0,10.0,68,0.00,,,0.01,,2013-01-15 04:12:00,
2013-01-14 23:22:00,33.0,25.0,30.38,WNW,293,1.0,4.0,73,0.00,,,0.01,,2013-01-15 04:22:00,
2013-01-14 23:33:00,32.0,25.0,30.38,East,89,0.0,1.0,75,0.00,,,0.01,,2013-01-15 04:33:00,
2013-01-14 23:42:00,32.0,25.0,30.38,East,89,0.0,1.0,75,0.00,,,0.01,,2013-01-15 04:42:00,
2013-01-14 23:52:00,31.0,25.0,30.38,East,92,0.0,1.0,78,0.00,,,0.01,,2013-01-15 04:52:00,